createdAt,value
2017-04-06T00:00:26.020Z,99.99
2017-04-06T00:01:37.218Z,99.99
2017-04-06T00:02:48.214Z,99.99
2017-04-06T00:03:59.471Z,99.99
2017-04-06T00:05:10.466Z,99.99
2017-04-06T00:06:21.461Z,99.99
2017-04-06T00:07:32.462Z,99.99
2017-04-06T00:08:43.459Z,99.99
2017-04-06T00:09:54.521Z,99.99
2017-04-06T00:11:05.517Z,99.99
2017-04-06T00:12:16.511Z,99.99
2017-04-06T00:13:27.728Z,99.99
2017-04-06T00:14:38.725Z,99.99
2017-04-06T00:15:49.718Z,99.99
2017-04-06T00:17:00.918Z,99.99
2017-04-06T00:18:12.121Z,99.99
2017-04-06T00:19:23.316Z,99.99
2017-04-06T00:20:34.597Z,99.99
2017-04-06T00:21:45.807Z,99.99
2017-04-06T00:22:56.815Z,99.99
2017-04-06T00:24:08.012Z,99.99
2017-04-06T00:25:19.017Z,99.99
2017-04-06T00:26:30.076Z,99.99
2017-04-06T00:27:41.074Z,99.99
2017-04-06T00:28:52.269Z,99.99
2017-04-06T00:30:03.263Z,99.99
2017-04-06T00:31:14.260Z,99.99
2017-04-06T00:32:25.317Z,99.99
2017-04-06T00:33:36.313Z,99.99
2017-04-06T00:34:47.535Z,99.99
2017-04-06T00:35:58.527Z,99.99
2017-04-06T00:37:09.718Z,99.99
2017-04-06T00:38:20.967Z,99.99
2017-04-06T00:39:31.973Z,99.99
2017-04-06T00:40:42.967Z,99.99
2017-04-06T00:41:53.975Z,99.99
2017-04-06T00:43:04.967Z,99.99
2017-04-06T00:44:16.213Z,99.99
2017-04-06T00:45:27.217Z,99.99
2017-04-06T00:46:38.419Z,99.99
2017-04-06T00:47:49.422Z,99.99
2017-04-06T00:49:00.418Z,99.99
2017-04-06T00:50:11.454Z,99.99
2017-04-06T00:51:22.453Z,99.99
2017-04-06T00:52:33.658Z,99.99
2017-04-06T00:53:44.655Z,99.99
2017-04-06T00:54:55.855Z,99.99
2017-04-06T00:56:06.905Z,99.99
2017-04-06T00:57:18.102Z,99.99
2017-04-06T00:58:29.102Z,99.99
2017-04-06T00:59:40.107Z,99.99
2017-04-06T01:00:51.110Z,99.99
2017-04-06T01:02:02.152Z,99.99
2017-04-06T01:03:13.154Z,99.99
2017-04-06T01:04:24.148Z,99.99
2017-04-06T01:05:35.146Z,99.99
2017-04-06T01:06:46.146Z,99.99
2017-04-06T01:07:57.197Z,99.99
2017-04-06T01:09:08.207Z,99.99
2017-04-06T01:10:19.402Z,99.99
2017-04-06T01:11:30.397Z,99.99
2017-04-06T01:12:41.398Z,99.99
2017-04-06T01:13:52.440Z,99.99
2017-04-06T01:15:03.434Z,99.99
2017-04-06T01:16:14.432Z,99.99
2017-04-06T01:17:25.427Z,99.99
2017-04-06T01:18:36.639Z,99.99
2017-04-06T01:19:48.096Z,99.99
2017-04-06T01:20:59.082Z,99.99
2017-04-06T01:22:10.079Z,99.99
2017-04-06T01:23:21.272Z,99.99
2017-04-06T01:24:32.487Z,99.99
2017-04-06T01:25:43.736Z,99.99
2017-04-06T01:26:54.730Z,99.99
2017-04-06T01:28:05.934Z,99.99
2017-04-06T01:29:16.930Z,99.99
2017-04-06T01:30:27.930Z,99.99
2017-04-06T01:31:39.164Z,99.99
2017-04-06T01:32:50.164Z,99.99
2017-04-06T01:34:01.176Z,99.99
2017-04-06T01:35:12.366Z,99.99
2017-04-06T01:36:23.575Z,99.99
2017-04-06T01:37:34.633Z,99.99
2017-04-06T01:38:45.631Z,99.99
2017-04-06T01:39:56.638Z,99.99
2017-04-06T01:41:07.650Z,99.99
2017-04-06T01:42:18.652Z,99.99
2017-04-06T01:43:29.700Z,99.99
2017-04-06T01:44:40.689Z,99.99
2017-04-06T01:45:51.675Z,99.99
2017-04-06T01:47:02.674Z,99.99
2017-04-06T01:48:13.659Z,99.99
2017-04-06T01:49:24.700Z,99.99
2017-04-06T01:50:35.903Z,99.99
2017-04-06T01:51:46.895Z,99.99
2017-04-06T01:52:57.900Z,99.99
2017-04-06T01:54:08.898Z,99.99
2017-04-06T01:55:19.939Z,99.99
2017-04-06T01:56:30.929Z,99.99
2017-04-06T01:57:41.913Z,99.99
2017-04-06T01:58:53.117Z,99.99
2017-04-06T02:00:04.136Z,99.99
2017-04-06T02:01:15.172Z,99.99
2017-04-06T02:02:26.179Z,99.99
2017-04-06T02:03:37.172Z,99.99
2017-04-06T02:04:48.161Z,99.99
2017-04-06T02:05:59.368Z,99.99
2017-04-06T02:07:10.420Z,99.99
2017-04-06T02:08:21.420Z,99.99
2017-04-06T02:09:32.428Z,99.99
2017-04-06T02:10:43.436Z,99.99
2017-04-06T02:11:54.437Z,99.99
2017-04-06T02:13:05.688Z,99.99
2017-04-06T02:14:16.695Z,99.99
2017-04-06T02:15:27.696Z,99.99
2017-04-06T02:16:38.888Z,99.99
2017-04-06T02:17:49.886Z,99.99
2017-04-06T02:19:01.340Z,99.99
2017-04-06T02:20:12.346Z,99.99
2017-04-06T02:21:23.350Z,99.99
2017-04-06T02:22:34.346Z,99.99
2017-04-06T02:23:45.347Z,99.99
2017-04-06T02:24:56.593Z,99.99
2017-04-06T02:26:07.590Z,99.99
2017-04-06T02:27:19.194Z,99.99
2017-04-06T02:28:30.398Z,99.99
2017-04-06T02:29:41.393Z,99.99
2017-04-06T02:30:52.380Z,99.99
2017-04-06T02:32:03.400Z,99.99
2017-04-06T02:33:14.592Z,99.99
2017-04-06T02:34:25.593Z,99.99
2017-04-06T02:35:36.653Z,99.99
2017-04-06T02:36:47.653Z,99.99
2017-04-06T02:37:58.644Z,99.99
2017-04-06T02:39:09.651Z,99.99
2017-04-06T02:40:20.646Z,99.99
2017-04-06T02:41:31.888Z,99.99
2017-04-06T02:42:42.888Z,99.99
2017-04-06T02:43:53.876Z,99.99
2017-04-06T02:45:04.862Z,99.99
2017-04-06T02:46:15.866Z,99.99
2017-04-06T02:47:26.907Z,99.99
2017-04-06T02:48:37.893Z,99.99
2017-04-06T02:49:48.887Z,99.99
2017-04-06T02:50:59.887Z,99.99
2017-04-06T02:52:11.080Z,99.99
2017-04-06T02:53:22.329Z,99.99
2017-04-06T02:54:33.329Z,99.99
2017-04-06T02:55:44.530Z,99.99
2017-04-06T02:56:55.527Z,99.99
2017-04-06T02:58:06.534Z,99.99
2017-04-06T02:59:17.577Z,99.99
2017-04-06T03:00:28.575Z,99.99
2017-04-06T03:01:39.559Z,99.99
2017-04-06T03:02:50.559Z,99.99
2017-04-06T03:04:01.549Z,99.99
2017-04-06T03:05:12.796Z,99.99
2017-04-06T03:06:23.829Z,99.99
2017-04-06T03:07:34.829Z,99.99
2017-04-06T03:08:45.824Z,99.99
2017-04-06T03:09:57.018Z,99.99
2017-04-06T03:11:08.274Z,99.99
2017-04-06T03:12:19.270Z,99.99
2017-04-06T03:13:30.274Z,99.99
2017-04-06T03:14:41.668Z,99.99
2017-04-06T03:15:52.673Z,99.99
2017-04-06T03:17:03.724Z,99.99
2017-04-06T03:18:14.717Z,99.99
2017-04-06T03:19:25.744Z,99.99
2017-04-06T03:20:36.746Z,99.99
2017-04-06T03:21:47.739Z,99.99
2017-04-06T03:22:58.985Z,99.99
2017-04-06T03:24:09.980Z,99.99
2017-04-06T03:25:20.983Z,99.99
2017-04-06T03:26:31.979Z,99.99
2017-04-06T03:27:42.977Z,99.99
2017-04-06T03:28:54.225Z,99.99
2017-04-06T03:30:05.226Z,99.99
2017-04-06T03:31:16.219Z,99.99
2017-04-06T03:32:27.412Z,99.99
2017-04-06T03:33:38.410Z,99.99
2017-04-06T03:34:49.456Z,99.99
2017-04-06T03:36:00.456Z,99.99
2017-04-06T03:37:11.469Z,99.99
2017-04-06T03:38:22.462Z,99.99
2017-04-06T03:39:33.455Z,99.99
2017-04-06T03:40:44.708Z,99.99
2017-04-06T03:41:55.898Z,99.99
2017-04-06T03:43:06.891Z,99.99
2017-04-06T03:44:18.290Z,99.99
2017-04-06T03:45:29.489Z,99.99
2017-04-06T03:46:40.737Z,99.99
2017-04-06T03:47:51.734Z,99.99
2017-04-06T03:49:02.733Z,99.99
2017-04-06T03:50:13.724Z,99.99
2017-04-06T03:51:24.720Z,99.99
2017-04-06T03:52:35.763Z,99.99
2017-04-06T03:53:46.762Z,99.99
2017-04-06T03:54:57.970Z,99.99
2017-04-06T03:56:09.182Z,99.99
2017-04-06T03:57:20.179Z,99.99
2017-04-06T03:58:31.423Z,99.99
2017-04-06T03:59:42.830Z,99.99
2017-04-06T04:00:53.823Z,99.99
2017-04-06T04:02:04.823Z,99.99
2017-04-06T04:03:15.814Z,99.99
2017-04-06T04:04:26.868Z,99.99
2017-04-06T04:05:37.858Z,99.99
2017-04-06T04:06:49.061Z,99.99
2017-04-06T04:08:00.053Z,99.99
2017-04-06T04:09:11.066Z,99.99
2017-04-06T04:10:22.117Z,99.99
2017-04-06T04:11:33.130Z,99.99
2017-04-06T04:12:44.328Z,99.99
2017-04-06T04:13:55.318Z,99.99
2017-04-06T04:15:06.307Z,99.99
2017-04-06T04:16:17.344Z,99.99
2017-04-06T04:17:28.339Z,99.99
2017-04-06T04:18:39.342Z,99.99
2017-04-06T04:19:50.531Z,99.99
2017-04-06T04:21:01.527Z,99.99
2017-04-06T04:22:12.571Z,99.99
2017-04-06T04:23:23.560Z,99.99
2017-04-06T04:24:34.550Z,99.99
2017-04-06T04:25:45.543Z,99.99
2017-04-06T04:26:56.550Z,99.99
2017-04-06T04:28:07.606Z,99.99
2017-04-06T04:29:18.603Z,99.99
2017-04-06T04:30:29.599Z,99.99
2017-04-06T04:31:40.590Z,99.99
2017-04-06T04:32:51.591Z,99.99
2017-04-06T04:34:02.839Z,99.99
2017-04-06T04:35:13.832Z,99.99
2017-04-06T04:36:24.830Z,99.99
2017-04-06T04:37:35.853Z,99.99
2017-04-06T04:38:46.846Z,99.99
2017-04-06T04:39:57.894Z,99.99
2017-04-06T04:41:08.901Z,99.99
2017-04-06T04:42:20.106Z,99.99
2017-04-06T04:43:31.103Z,99.99
2017-04-06T04:44:42.109Z,99.99
2017-04-06T04:45:53.108Z,99.99
2017-04-06T04:47:04.105Z,99.99
2017-04-06T04:48:15.110Z,99.99
2017-04-06T04:49:26.095Z,99.99
2017-04-06T04:50:37.344Z,99.99
2017-04-06T04:51:48.343Z,99.99
2017-04-06T04:52:59.333Z,99.99
2017-04-06T04:54:10.523Z,99.99
2017-04-06T04:55:21.728Z,99.99
2017-04-06T04:56:32.771Z,99.99
2017-04-06T04:57:43.772Z,99.99
2017-04-06T04:58:54.766Z,99.99
2017-04-06T05:00:05.756Z,99.99
2017-04-06T05:01:16.749Z,99.99
2017-04-06T05:02:28.005Z,98.78
2017-04-06T05:03:39.006Z,99.99
2017-04-06T05:04:50.011Z,99.99
2017-04-06T05:06:01.012Z,99.99
2017-04-06T05:07:12.222Z,99.99
2017-04-06T05:08:23.687Z,99.99
2017-04-06T05:09:34.887Z,99.99
2017-04-06T05:10:45.885Z,99.99
2017-04-06T05:11:56.883Z,99.99
2017-04-06T05:13:07.896Z,99.99
2017-04-06T05:14:19.347Z,99.99
2017-04-06T05:15:30.353Z,99.99
2017-04-06T05:16:41.362Z,99.99
2017-04-06T05:17:52.368Z,99.99
2017-04-06T05:19:03.371Z,99.99
2017-04-06T05:20:14.613Z,99.99
2017-04-06T05:21:25.622Z,99.99
2017-04-06T05:22:36.825Z,99.99
2017-04-06T05:23:47.823Z,99.99
2017-04-06T05:24:58.821Z,99.99
2017-04-06T05:26:09.889Z,99.99
2017-04-06T05:27:21.085Z,99.99
2017-04-06T05:28:32.098Z,99.99
2017-04-06T05:29:43.095Z,99.99
2017-04-06T05:30:54.092Z,99.99
2017-04-06T05:32:05.143Z,99.99
2017-04-06T05:33:16.345Z,99.99
2017-04-06T05:34:27.543Z,99.99
2017-04-06T05:35:38.538Z,99.99
2017-04-06T05:36:49.544Z,99.99
2017-04-06T05:38:00.799Z,99.99
2017-04-06T05:39:11.787Z,99.99
2017-04-06T05:40:22.990Z,99.99
2017-04-06T05:41:33.991Z,99.99
2017-04-06T05:42:44.997Z,99.99
2017-04-06T05:43:56.646Z,99.99
2017-04-06T05:45:07.649Z,99.99
2017-04-06T05:46:18.867Z,99.99
2017-04-06T05:47:29.867Z,99.99
2017-04-06T05:48:40.868Z,99.99
2017-04-06T05:49:51.930Z,99.99
2017-04-06T05:51:02.919Z,99.99
2017-04-06T05:52:13.922Z,99.99
2017-04-06T05:53:24.918Z,99.99
2017-04-06T05:54:35.923Z,99.99
2017-04-06T05:55:47.176Z,99.99
2017-04-06T05:56:58.188Z,99.99
2017-04-06T05:58:09.195Z,99.99
2017-04-06T05:59:20.393Z,99.99
2017-04-06T06:00:31.390Z,99.99
2017-04-06T06:01:42.435Z,99.99
2017-04-06T06:02:53.428Z,99.99
2017-04-06T06:04:04.648Z,99.99
2017-04-06T06:05:15.852Z,99.99
2017-04-06T06:06:27.060Z,99.99
2017-04-06T06:07:38.102Z,99.99
2017-04-06T06:08:49.089Z,99.99
2017-04-06T06:10:00.289Z,99.99
2017-04-06T06:11:11.299Z,99.99
2017-04-06T06:12:22.308Z,99.99
2017-04-06T06:13:33.351Z,99.99
2017-04-06T06:14:44.357Z,99.99
2017-04-06T06:15:55.563Z,99.99
2017-04-06T06:17:06.554Z,99.99
2017-04-06T06:18:17.557Z,99.99
2017-04-06T06:19:28.608Z,99.99
2017-04-06T06:20:39.816Z,99.99
2017-04-06T06:21:50.814Z,99.99
2017-04-06T06:23:01.828Z,99.99
2017-04-06T06:24:12.838Z,99.99
2017-04-06T06:25:24.079Z,99.99
2017-04-06T06:26:35.074Z,99.99
2017-04-06T06:27:46.107Z,99.99
2017-04-06T06:28:57.124Z,99.99
2017-04-06T06:30:08.128Z,99.99
2017-04-06T06:31:19.579Z,99.99
2017-04-06T06:32:30.575Z,99.99
2017-04-06T06:33:41.777Z,99.99
2017-04-06T06:34:52.981Z,99.99
2017-04-06T06:36:03.990Z,99.99
2017-04-06T06:37:15.445Z,99.99
2017-04-06T06:38:26.637Z,99.99
2017-04-06T06:39:37.827Z,99.99
2017-04-06T06:40:48.833Z,99.99
2017-04-06T06:41:59.836Z,99.99
2017-04-06T06:43:10.897Z,99.99
2017-04-06T06:44:22.082Z,99.99
2017-04-06T06:45:33.099Z,99.99
2017-04-06T06:46:44.097Z,99.99
2017-04-06T06:47:55.091Z,99.99
2017-04-06T06:49:06.342Z,99.99
2017-04-06T06:50:17.329Z,99.99
2017-04-06T06:51:28.357Z,99.99
2017-04-06T06:52:39.363Z,99.99
2017-04-06T06:53:50.565Z,99.99
2017-04-06T06:55:01.619Z,99.99
2017-04-06T06:56:12.827Z,99.99
2017-04-06T06:57:23.832Z,99.99
2017-04-06T06:58:34.836Z,99.99
2017-04-06T06:59:45.831Z,99.99
2017-04-06T07:00:56.880Z,99.99
2017-04-06T07:02:08.091Z,99.99
2017-04-06T07:03:19.097Z,99.99
2017-04-06T07:04:30.303Z,99.99
2017-04-06T07:05:41.357Z,99.99
2017-04-06T07:06:52.352Z,99.99
2017-04-06T07:08:03.554Z,99.99
2017-04-06T07:09:14.564Z,99.99
2017-04-06T07:10:25.571Z,99.99
2017-04-06T07:11:37.019Z,99.99
2017-04-06T07:12:48.025Z,99.99
2017-04-06T07:13:59.027Z,99.99
2017-04-06T07:15:10.029Z,99.99
2017-04-06T07:16:21.030Z,99.99
2017-04-06T07:17:32.082Z,99.99
2017-04-06T07:18:43.086Z,99.99
2017-04-06T07:19:54.091Z,99.99
2017-04-06T07:21:05.095Z,99.99
2017-04-06T07:22:16.100Z,99.99
2017-04-06T07:23:27.344Z,99.99
2017-04-06T07:24:38.354Z,99.99
2017-04-06T07:25:49.367Z,99.99
2017-04-06T07:27:00.369Z,99.99
2017-04-06T07:28:11.571Z,99.99
2017-04-06T07:29:22.825Z,99.99
2017-04-06T07:30:33.828Z,99.99
2017-04-06T07:31:44.835Z,99.99
2017-04-06T07:32:55.835Z,99.99
2017-04-06T07:34:06.870Z,99.99
2017-04-06T07:35:17.928Z,99.99
2017-04-06T07:36:28.939Z,99.99
2017-04-06T07:37:39.948Z,99.99
2017-04-06T07:38:50.945Z,99.99
2017-04-06T07:40:01.940Z,99.99
2017-04-06T07:41:13.206Z,99.99
2017-04-06T07:42:24.409Z,99.99
2017-04-06T07:43:35.414Z,99.99
2017-04-06T07:44:46.417Z,99.99
2017-04-06T07:45:57.428Z,99.99
2017-04-06T07:47:08.676Z,99.99
2017-04-06T07:48:19.696Z,99.99
2017-04-06T07:49:30.703Z,99.99
2017-04-06T07:50:41.731Z,99.99
2017-04-06T07:51:52.739Z,99.99
2017-04-06T07:53:04.006Z,99.99
2017-04-06T07:54:15.013Z,99.99
2017-04-06T07:55:26.027Z,99.99
2017-04-06T07:56:37.039Z,99.99
2017-04-06T07:57:48.055Z,99.8
2017-04-06T07:58:59.542Z,99.99
2017-04-06T08:00:10.547Z,97.13
2017-04-06T08:01:21.545Z,98.6
2017-04-06T08:02:32.557Z,99.99
2017-04-06T08:03:43.559Z,99.84
2017-04-06T08:04:54.610Z,99.27
2017-04-06T08:06:05.628Z,99.99
2017-04-06T08:07:16.625Z,99.99
2017-04-06T08:08:27.623Z,99.99
2017-04-06T08:09:38.619Z,99.18
2017-04-06T08:10:49.633Z,97.94
2017-04-06T08:12:00.642Z,92.32
2017-04-06T08:13:11.832Z,91.84
2017-04-06T08:14:22.835Z,93.37
2017-04-06T08:15:33.852Z,94.7
2017-04-06T08:16:45.117Z,94.79
2017-04-06T08:17:56.121Z,97.27
2017-04-06T08:19:07.124Z,96.6
2017-04-06T08:20:18.129Z,95.61
2017-04-06T08:21:29.144Z,95.27
2017-04-06T08:22:40.414Z,92.5
2017-04-06T08:23:51.417Z,89.5
2017-04-06T08:25:02.421Z,87.68
2017-04-06T08:26:13.424Z,84.06
2017-04-06T08:27:24.430Z,85.16
2017-04-06T08:28:35.493Z,86.02
2017-04-06T08:29:46.487Z,89.5
2017-04-06T08:30:57.485Z,89.79
2017-04-06T08:32:08.494Z,89.79
2017-04-06T08:33:19.494Z,89.17
2017-04-06T08:34:30.549Z,89.94
2017-04-06T08:35:41.546Z,90.79
2017-04-06T08:36:52.547Z,90.79
2017-04-06T08:38:03.546Z,89.46
2017-04-06T08:39:14.557Z,92.03
2017-04-06T08:40:25.810Z,91.65
2017-04-06T08:41:37.012Z,93.89
2017-04-06T08:42:48.223Z,93.89
2017-04-06T08:43:59.230Z,94.17
2017-04-06T08:45:10.466Z,93.7
2017-04-06T08:46:21.470Z,96.84
2017-04-06T08:47:32.476Z,97.41
2017-04-06T08:48:43.685Z,96.36
2017-04-06T08:49:54.683Z,95.7
2017-04-06T08:51:05.949Z,95.46
2017-04-06T08:52:16.961Z,94.27
2017-04-06T08:53:27.960Z,91.79
2017-04-06T08:54:39.366Z,89.7
2017-04-06T08:55:50.370Z,89.41
2017-04-06T08:57:01.423Z,90.17
2017-04-06T08:58:12.434Z,89.22
2017-04-06T08:59:23.430Z,88.12
2017-04-06T09:00:34.627Z,90.31
2017-04-06T09:01:45.642Z,90.46
2017-04-06T09:02:56.845Z,90.12
2017-04-06T09:04:07.856Z,89.65
2017-04-06T09:05:18.860Z,92.41
2017-04-06T09:06:29.871Z,90.7
2017-04-06T09:07:41.073Z,90.22
2017-04-06T09:08:52.121Z,85.88
2017-04-06T09:10:03.126Z,82.45
2017-04-06T09:11:14.161Z,82.26
2017-04-06T09:12:25.368Z,83.21
2017-04-06T09:13:36.423Z,82.64
2017-04-06T09:14:47.627Z,80.44
2017-04-06T09:15:58.831Z,79.97
2017-04-06T09:17:09.841Z,78.35
2017-04-06T09:18:20.850Z,78.54
2017-04-06T09:19:32.104Z,79.59
2017-04-06T09:20:43.113Z,81.12
2017-04-06T09:21:54.119Z,83.02
2017-04-06T09:23:05.120Z,84.07
2017-04-06T09:24:16.339Z,84.92
2017-04-06T09:25:27.398Z,83.88
2017-04-06T09:26:38.391Z,83.97
2017-04-06T09:27:49.391Z,85.02
2017-04-06T09:29:00.596Z,87.6
2017-04-06T09:30:11.800Z,86.74
2017-04-06T09:31:23.078Z,86.74
2017-04-06T09:32:34.094Z,84.74
2017-04-06T09:33:45.103Z,83.02
2017-04-06T09:34:56.307Z,82.83
2017-04-06T09:36:07.508Z,83.78
2017-04-06T09:37:18.507Z,83.4
2017-04-06T09:38:29.510Z,83.16
2017-04-06T09:39:40.518Z,83.35
2017-04-06T09:40:51.727Z,82.4
2017-04-06T09:42:03.204Z,82.01
2017-04-06T09:43:14.214Z,82.78
2017-04-06T09:44:25.210Z,82.2
2017-04-06T09:45:36.654Z,82.87
2017-04-06T09:46:47.695Z,82.87
2017-04-06T09:47:59.153Z,82.4
2017-04-06T09:49:10.156Z,82.78
2017-04-06T09:50:21.553Z,81.92
2017-04-06T09:51:32.554Z,82.68
2017-04-06T09:52:43.564Z,80.68
2017-04-06T09:53:54.845Z,84.01
2017-04-06T09:55:05.863Z,82.68
2017-04-06T09:56:16.876Z,82.97
2017-04-06T09:57:28.090Z,80.77
2017-04-06T09:58:39.102Z,80.58
2017-04-06T09:59:50.360Z,78.67
2017-04-06T10:01:01.364Z,79.44
2017-04-06T10:02:12.390Z,78.67
2017-04-06T10:03:23.606Z,79.44
2017-04-06T10:04:34.810Z,79.82
2017-04-06T10:05:45.858Z,80.91
2017-04-06T10:06:56.876Z,80.15
2017-04-06T10:08:07.897Z,77.09
2017-04-06T10:09:18.920Z,76.52
2017-04-06T10:10:30.363Z,75.18
2017-04-06T10:11:41.457Z,74.08
2017-04-06T10:12:52.476Z,73.54
2017-04-06T10:14:03.480Z,70.65
2017-04-06T10:15:14.490Z,69.7
2017-04-06T10:16:25.511Z,68.74
2017-04-06T10:17:36.769Z,68.55
2017-04-06T10:18:47.771Z,68.16
2017-04-06T10:19:58.773Z,70.36
2017-04-06T10:21:09.770Z,70.9
2017-04-06T10:22:20.775Z,70.33
2017-04-06T10:23:32.048Z,72.49
2017-04-06T10:24:43.077Z,73.16
2017-04-06T10:25:54.290Z,72.49
2017-04-06T10:27:05.294Z,73.12
2017-04-06T10:28:16.306Z,72.64
2017-04-06T10:29:27.358Z,73.41
2017-04-06T10:30:38.576Z,71.41
2017-04-06T10:31:49.780Z,73.41
2017-04-06T10:33:01.393Z,73.69
2017-04-06T10:34:12.407Z,73.32
2017-04-06T10:35:23.680Z,73.6
2017-04-06T10:36:34.681Z,72.45
2017-04-06T10:37:45.692Z,73.69
2017-04-06T10:38:56.704Z,73.03
2017-04-06T10:40:07.719Z,74.37
2017-04-06T10:41:18.785Z,74.17
2017-04-06T10:42:29.794Z,74.17
2017-04-06T10:43:40.805Z,73.54
2017-04-06T10:44:51.823Z,71.28
2017-04-06T10:46:02.837Z,68.45
2017-04-06T10:47:14.309Z,67.91
2017-04-06T10:48:25.323Z,67.18
2017-04-06T10:49:36.338Z,63.83
2017-04-06T10:50:47.351Z,64.72
2017-04-06T10:51:58.560Z,64.82
2017-04-06T10:53:09.623Z,65.84
2017-04-06T10:54:20.646Z,66.03
2017-04-06T10:55:31.676Z,67.91
2017-04-06T10:56:42.915Z,67.34
2017-04-06T10:57:53.932Z,66
2017-04-06T10:59:05.183Z,65.61
2017-04-06T11:00:16.397Z,66.09
2017-04-06T11:01:27.408Z,66.57
2017-04-06T11:02:38.423Z,66.76
2017-04-06T11:03:49.436Z,67.97
2017-04-06T11:05:00.499Z,67.05
2017-04-06T11:06:11.725Z,68.39
2017-04-06T11:07:22.750Z,66.32
2017-04-06T11:08:33.970Z,65.01
2017-04-06T11:09:44.983Z,63.6
2017-04-06T11:10:56.252Z,64.85
2017-04-06T11:12:07.269Z,62.77
2017-04-06T11:13:18.282Z,62.42
2017-04-06T11:14:29.335Z,62.36
2017-04-06T11:15:40.336Z,60.53
2017-04-06T11:16:51.605Z,61.21
2017-04-06T11:18:02.624Z,60.03
2017-04-06T11:19:13.643Z,59.83
2017-04-06T11:20:24.855Z,59.06
2017-04-06T11:21:35.874Z,60.67
2017-04-06T11:22:46.945Z,61.43
2017-04-06T11:23:57.958Z,61.82
2017-04-06T11:25:08.978Z,62.65
2017-04-06T11:26:20.031Z,62.55
2017-04-06T11:27:31.055Z,62.14
2017-04-06T11:28:42.116Z,62.23
2017-04-06T11:29:53.331Z,62.93
2017-04-06T11:31:04.342Z,63.42
2017-04-06T11:32:15.357Z,62.74
2017-04-06T11:33:26.369Z,63.39
2017-04-06T11:34:37.837Z,64.92
2017-04-06T11:35:48.834Z,64.4
2017-04-06T11:36:59.849Z,65.45
2017-04-06T11:38:10.858Z,64.69
2017-04-06T11:39:21.868Z,64.72
2017-04-06T11:40:32.930Z,63.67
2017-04-06T11:41:44.144Z,65.23
2017-04-06T11:42:55.349Z,63.13
2017-04-06T11:44:06.579Z,63.16
2017-04-06T11:45:17.591Z,61.66
2017-04-06T11:46:28.662Z,59.67
2017-04-06T11:47:39.672Z,58.42
2017-04-06T11:48:50.689Z,57.37
2017-04-06T11:50:02.110Z,57.46
2017-04-06T11:51:13.123Z,57.18
2017-04-06T11:52:24.384Z,58.81
2017-04-06T11:53:35.396Z,59.77
2017-04-06T11:54:46.412Z,57.15
2017-04-06T11:55:57.627Z,59.64
2017-04-06T11:57:08.656Z,60.7
2017-04-06T11:58:19.718Z,60
2017-04-06T11:59:30.737Z,60.28
2017-04-06T12:00:41.956Z,60
2017-04-06T12:01:52.965Z,60.5
2017-04-06T12:03:03.993Z,60.41
2017-04-06T12:04:15.045Z,60.12
2017-04-06T12:05:26.071Z,59.45
2017-04-06T12:06:37.082Z,60.41
2017-04-06T12:07:48.107Z,62.01
2017-04-06T12:08:59.519Z,62.59
2017-04-06T12:10:10.811Z,63.54
2017-04-06T12:11:22.024Z,63.45
2017-04-06T12:12:33.054Z,61.15
2017-04-06T12:13:44.065Z,62.59
2017-04-06T12:14:55.082Z,62.3
2017-04-06T12:16:06.347Z,61.75
2017-04-06T12:17:17.364Z,62.52
2017-04-06T12:18:28.365Z,61.63
2017-04-06T12:19:39.387Z,60
2017-04-06T12:20:50.801Z,58.91
2017-04-06T12:22:01.860Z,62.74
2017-04-06T12:23:13.082Z,61.24
2017-04-06T12:24:24.100Z,61.63
2017-04-06T12:25:35.113Z,60.86
2017-04-06T12:26:46.121Z,59.8
2017-04-06T12:27:57.381Z,61.34
2017-04-06T12:29:08.385Z,59.8
2017-04-06T12:30:19.393Z,61.24
2017-04-06T12:31:30.406Z,60.6
2017-04-06T12:32:41.447Z,59.55
2017-04-06T12:33:52.517Z,58.49
2017-04-06T12:35:03.526Z,58.59
2017-04-06T12:36:14.545Z,59.52
2017-04-06T12:37:25.550Z,60.47
2017-04-06T12:38:36.568Z,59.8
2017-04-06T12:39:47.629Z,60.44
2017-04-06T12:40:58.655Z,61.11
2017-04-06T12:42:09.872Z,61.47
2017-04-06T12:43:20.883Z,61.94
2017-04-06T12:44:31.906Z,62.9
2017-04-06T12:45:42.926Z,60.89
2017-04-06T12:46:53.935Z,63.13
2017-04-06T12:48:04.940Z,60.44
2017-04-06T12:49:16.153Z,59.9
2017-04-06T12:50:27.211Z,60.76
2017-04-06T12:51:38.217Z,59.83
2017-04-06T12:52:49.224Z,60.12
2017-04-06T12:54:00.442Z,60.03
2017-04-06T12:55:11.452Z,59.93
2017-04-06T12:56:22.917Z,56.19
2017-04-06T12:57:34.137Z,59.36
2017-04-06T12:58:45.147Z,60.12
2017-04-06T12:59:56.155Z,59.52
2017-04-06T13:01:07.158Z,59.71
2017-04-06T13:02:18.228Z,60.47
2017-04-06T13:03:29.235Z,62.3
2017-04-06T13:04:40.248Z,63.26
2017-04-06T13:05:51.293Z,62.3
2017-04-06T13:07:02.313Z,62.36
2017-04-06T13:08:13.778Z,62.36
2017-04-06T13:09:24.991Z,64.66
2017-04-06T13:10:36.009Z,63.89
2017-04-06T13:11:47.029Z,65.14
2017-04-06T13:12:58.040Z,64.95
2017-04-06T13:14:09.131Z,63.26
2017-04-06T13:15:20.147Z,62.59
2017-04-06T13:16:31.156Z,61.72
2017-04-06T13:17:42.165Z,63.32
2017-04-06T13:18:53.164Z,63.42
2017-04-06T13:20:04.229Z,62.07
2017-04-06T13:21:15.434Z,60.64
2017-04-06T13:22:26.448Z,62.23
2017-04-06T13:23:37.478Z,63.76
2017-04-06T13:24:48.482Z,63.86
2017-04-06T13:25:59.755Z,65.11
2017-04-06T13:27:10.970Z,64.82
2017-04-06T13:28:21.983Z,66.22
2017-04-06T13:29:32.996Z,65.45
2017-04-06T13:30:44.221Z,66.57
2017-04-06T13:31:55.491Z,65.9
2017-04-06T13:33:06.506Z,68.1
2017-04-06T13:34:17.518Z,66.38
2017-04-06T13:35:28.527Z,65.9
2017-04-06T13:36:39.528Z,66.86
2017-04-06T13:37:50.782Z,67.24
2017-04-06T13:39:01.807Z,69.02
2017-04-06T13:40:12.819Z,67.82
2017-04-06T13:41:23.834Z,66.76
2017-04-06T13:42:35.039Z,65.9
2017-04-06T13:43:46.111Z,64.09
2017-04-06T13:44:57.106Z,63.16
2017-04-06T13:46:08.522Z,62.46
2017-04-06T13:47:19.543Z,62.37
2017-04-06T13:48:30.547Z,61.79
2017-04-06T13:49:41.806Z,63.26
2017-04-06T13:50:52.808Z,63.06
2017-04-06T13:52:03.826Z,65.74
2017-04-06T13:53:14.840Z,62.49
2017-04-06T13:54:26.252Z,63.26
2017-04-06T13:55:37.515Z,61.57
2017-04-06T13:56:48.933Z,64.63
2017-04-06T13:57:59.940Z,65.88
2017-04-06T13:59:10.954Z,66.16
2017-04-06T14:00:21.961Z,65.42
2017-04-06T14:01:33.214Z,65.14
2017-04-06T14:02:44.212Z,62.62
2017-04-06T14:03:55.423Z,62.62
2017-04-06T14:05:06.420Z,63.86
2017-04-06T14:06:17.624Z,65.36
2017-04-06T14:07:28.680Z,63.73
2017-04-06T14:08:39.688Z,63.26
2017-04-06T14:09:50.688Z,65.08
2017-04-06T14:11:01.906Z,64.88
2017-04-06T14:12:12.923Z,62.68
2017-04-06T14:13:24.194Z,65.23
2017-04-06T14:14:35.201Z,68.2
2017-04-06T14:15:46.219Z,68.87
2017-04-06T14:16:57.223Z,69.25
2017-04-06T14:18:08.231Z,69.44
2017-04-06T14:19:19.297Z,69.44
2017-04-06T14:20:30.312Z,68.58
2017-04-06T14:21:41.339Z,69.21
2017-04-06T14:22:52.340Z,69.79
2017-04-06T14:24:03.343Z,70.07
2017-04-06T14:25:14.608Z,68.93
2017-04-06T14:26:25.610Z,69.89
2017-04-06T14:27:36.626Z,70.36
2017-04-06T14:28:47.643Z,72.08
2017-04-06T14:29:58.648Z,68.74
2017-04-06T14:31:09.722Z,70.07
2017-04-06T14:32:20.730Z,70.07
2017-04-06T14:33:31.737Z,70.17
2017-04-06T14:34:42.750Z,69.21
2017-04-06T14:35:53.761Z,71.7
2017-04-06T14:37:04.829Z,70.46
2017-04-06T14:38:15.850Z,70.36
2017-04-06T14:39:27.075Z,69.7
2017-04-06T14:40:38.071Z,70.36
2017-04-06T14:41:49.284Z,71.13
2017-04-06T14:43:00.548Z,74.09
2017-04-06T14:44:11.758Z,72.75
2017-04-06T14:45:22.763Z,70.94
2017-04-06T14:46:33.983Z,70.07
2017-04-06T14:47:44.982Z,70.17
2017-04-06T14:48:56.078Z,69.7
2017-04-06T14:50:07.292Z,71.51
2017-04-06T14:51:18.505Z,70.07
2017-04-06T14:52:29.700Z,68.84
2017-04-06T14:53:40.911Z,67.78
2017-04-06T14:54:52.160Z,69.21
2017-04-06T14:56:03.373Z,70.36
2017-04-06T14:57:14.376Z,71.32
2017-04-06T14:58:25.382Z,71.8
2017-04-06T14:59:36.385Z,71.99
2017-04-06T15:00:47.392Z,71.13
2017-04-06T15:01:58.405Z,71.61
2017-04-06T15:03:09.406Z,74.28
2017-04-06T15:04:20.409Z,76.16
2017-04-06T15:05:31.502Z,74.76
2017-04-06T15:06:42.510Z,72.94
2017-04-06T15:07:53.717Z,73.14
2017-04-06T15:09:04.728Z,71.8
2017-04-06T15:10:15.742Z,73.39
2017-04-06T15:11:26.999Z,73.48
2017-04-06T15:12:38.016Z,73.67
2017-04-06T15:13:49.026Z,72.43
2017-04-06T15:15:00.042Z,74.85
2017-04-06T15:16:11.055Z,75.91
2017-04-06T15:17:22.117Z,73.8